Time;durP1;ratioP1;P1;durP2;ratioP2;P2;SDS_P1;SDS_P2;PMS_P1;PMS_P2;Temp;Humidity;BMP_temperature;BMP_pressure;BME280_temperature;BME280_humidity;BME280_pressure;Samples;Min_cycle;Max_cycle;Signal;HPM_P1;HPM_P2
2022/10/13 00:00:43;;;;;;;256.75;75.82;;;7.50;99.90;;;;;;5062583;28;20105;-88
2022/10/13 00:03:21;;;;;;;247.70;71.00;;;7.60;99.90;;;;;;5079500;28;20028;-88
2022/10/13 00:05:49;;;;;;;240.73;70.85;;;7.60;99.90;;;;;;5062302;28;20483;-88
2022/10/13 00:08:18;;;;;;;253.40;75.30;;;7.60;99.90;;;;;;5053438;28;20579;-89
2022/10/13 00:10:46;;;;;;;262.83;71.40;;;7.60;99.90;;;;;;5100159;28;20032;-89
2022/10/13 00:13:12;;;;;;;233.98;69.28;;;7.60;99.90;;;;;;5071511;28;20027;-89
2022/10/13 00:19:26;;;;;;;214.93;63.25;;;7.50;99.90;;;;;;5075584;28;20085;-88
2022/10/13 00:21:52;;;;;;;223.57;67.63;;;7.40;99.90;;;;;;5072946;28;20086;-88
2022/10/13 00:24:17;;;;;;;245.25;68.38;;;7.30;99.90;;;;;;5062811;28;20024;-88
2022/10/13 00:26:48;;;;;;;233.23;69.63;;;7.30;99.90;;;;;;5058985;28;20043;-88
2022/10/13 00:29:18;;;;;;;216.02;64.53;;;7.30;99.90;;;;;;5080366;28;20020;-87
2022/10/13 00:31:43;;;;;;;198.80;61.28;;;7.20;99.90;;;;;;5074926;28;20197;-88
2022/10/13 00:34:09;;;;;;;191.27;59.53;;;7.10;99.90;;;;;;5074093;28;20036;-88
2022/10/13 00:36:34;;;;;;;180.95;57.85;;;7.00;99.90;;;;;;5071367;28;20035;-88
2022/10/13 00:39:00;;;;;;;194.60;61.13;;;7.00;99.90;;;;;;5056645;28;20035;-88
2022/10/13 00:41:26;;;;;;;194.27;58.80;;;7.00;99.90;;;;;;5079600;28;20039;-88
2022/10/13 00:43:57;;;;;;;202.82;59.22;;;7.10;99.90;;;;;;5058324;28;20029;-88
2022/10/13 00:46:25;;;;;;;193.13;59.90;;;7.00;99.90;;;;;;5063133;28;20024;-88
2022/10/13 00:49:00;;;;;;;193.13;59.15;;;7.00;99.90;;;;;;5071200;28;20024;-88
2022/10/13 00:51:30;;;;;;;197.57;57.63;;;6.90;99.90;;;;;;5096106;28;20475;-88
2022/10/13 00:53:58;;;;;;;204.73;60.88;;;6.90;99.90;;;;;;5055892;28;20033;-88
2022/10/13 00:56:25;;;;;;;201.52;59.83;;;6.90;99.90;;;;;;5099371;28;20028;-88
2022/10/13 00:58:53;;;;;;;192.02;60.22;;;6.90;99.90;;;;;;5078809;28;20044;-88
2022/10/13 01:01:19;;;;;;;183.13;55.83;;;6.90;99.90;;;;;;5083447;28;20038;-89
2022/10/13 01:03:44;;;;;;;190.52;57.55;;;6.90;99.90;;;;;;5082049;28;20028;-88
2022/10/13 01:06:11;;;;;;;204.60;62.92;;;6.90;99.90;;;;;;5055846;28;20033;-88
2022/10/13 01:08:37;;;;;;;196.98;58.75;;;6.90;99.90;;;;;;5079207;28;20053;-88
2022/10/13 01:11:06;;;;;;;182.60;55.72;;;6.80;99.90;;;;;;5067703;28;20059;-88
2022/10/13 01:13:51;;;;;;;187.25;56.95;;;6.70;99.90;;;;;;5102294;28;20123;-88
2022/10/13 01:16:45;;;;;;;207.10;62.08;;;6.70;99.90;;;;;;5076732;28;20035;-87
2022/10/13 01:19:33;;;;;;;190.15;56.22;;;6.70;99.90;;;;;;5055789;28;20133;-88
2022/10/13 01:22:01;;;;;;;189.27;56.45;;;6.70;99.90;;;;;;5076280;28;20027;-88
2022/10/13 01:24:37;;;;;;;173.38;55.72;;;6.70;99.90;;;;;;5066474;28;20020;-88
2022/10/13 01:27:24;;;;;;;201.02;58.45;;;6.60;99.90;;;;;;5062382;28;20106;-88
2022/10/13 01:30:00;;;;;;;195.00;59.95;;;6.60;99.90;;;;;;5064018;28;20039;-88
2022/10/13 01:32:51;;;;;;;193.80;58.03;;;6.60;99.90;;;;;;5088858;28;20056;-88
2022/10/13 01:35:47;;;;;;;211.20;64.38;;;6.60;99.90;;;;;;5075455;28;20682;-89
2022/10/13 01:38:15;;;;;;;219.48;62.40;;;6.60;99.90;;;;;;5075595;28;20032;-88
2022/10/13 01:41:00;;;;;;;206.50;63.42;;;6.70;99.90;;;;;;5062312;28;20054;-89
2022/10/13 01:43:36;;;;;;;234.07;62.45;;;6.70;99.90;;;;;;5063378;28;20028;-88
2022/10/13 01:46:28;;;;;;;207.13;62.03;;;6.70;99.90;;;;;;5056657;28;20028;-88
2022/10/13 01:48:57;;;;;;;204.68;60.50;;;6.70;99.90;;;;;;5060106;28;20071;-88
2022/10/13 01:51:24;;;;;;;212.30;60.92;;;6.70;99.90;;;;;;5114567;27;20486;-88
2022/10/13 01:53:52;;;;;;;216.77;66.00;;;6.70;99.90;;;;;;5060199;28;20035;-88
2022/10/13 01:56:30;;;;;;;216.25;61.42;;;6.70;99.90;;;;;;5097843;28;20138;-88
2022/10/13 01:58:58;;;;;;;224.18;61.63;;;6.80;99.90;;;;;;5060248;28;20032;-89
2022/10/13 02:01:45;;;;;;;225.60;59.00;;;6.80;99.90;;;;;;5101341;28;20674;-87
2022/10/13 02:04:22;;;;;;;301.17;69.57;;;6.90;99.90;;;;;;5056617;28;20043;-88
2022/10/13 02:07:15;;;;;;;480.65;83.78;;;7.20;99.90;;;;;;5075093;28;20491;-88
2022/10/13 02:09:58;;;;;;;517.25;89.70;;;7.90;99.90;;;;;;5060346;28;20017;-88
2022/10/13 02:12:35;;;;;;;590.78;93.93;;;8.40;99.90;;;;;;5077612;28;20038;-88
2022/10/13 02:15:02;;;;;;;657.22;99.10;;;8.70;99.90;;;;;;5074771;28;20116;-89
2022/10/13 02:17:30;;;;;;;507.33;90.63;;;8.80;99.90;;;;;;5081335;28;20031;-88
2022/10/13 02:19:56;;;;;;;567.35;89.82;;;8.90;99.90;;;;;;5057693;28;20037;-88
2022/10/13 02:22:28;;;;;;;852.83;99.55;;;9.00;99.90;;;;;;5081160;28;20068;-89
2022/10/13 02:24:54;;;;;;;588.92;89.68;;;9.00;99.90;;;;;;5076613;28;20082;-88
2022/10/13 02:27:21;;;;;;;559.63;94.50;;;9.10;99.90;;;;;;5099469;28;20020;-88
2022/10/13 02:29:56;;;;;;;566.30;90.13;;;9.00;99.90;;;;;;5063066;28;20028;-87
2022/10/13 02:32:37;;;;;;;540.00;88.72;;;9.00;99.90;;;;;;5074634;28;20052;-88
2022/10/13 02:35:03;;;;;;;436.65;79.82;;;9.20;99.90;;;;;;5059804;28;20028;-89
2022/10/13 02:37:28;;;;;;;403.70;73.82;;;9.10;99.90;;;;;;5088415;28;20029;-89
2022/10/13 02:39:54;;;;;;;226.82;66.43;;;9.10;99.90;;;;;;5069908;28;20055;-89
2022/10/13 02:42:20;;;;;;;162.20;61.75;;;9.10;99.90;;;;;;5056179;28;20021;-89
2022/10/13 02:44:45;;;;;;;265.50;73.20;;;9.10;99.90;;;;;;5087691;28;20123;-89
2022/10/13 02:47:12;;;;;;;483.20;83.00;;;9.10;99.90;;;;;;5076340;28;20028;-89
2022/10/13 02:49:37;;;;;;;173.18;60.45;;;9.10;99.90;;;;;;5089006;28;20031;-89
2022/10/13 02:52:03;;;;;;;171.15;60.33;;;9.20;99.90;;;;;;5066371;28;20024;-89
2022/10/13 02:54:29;;;;;;;244.25;68.38;;;9.20;99.90;;;;;;5105003;27;20052;-89
2022/10/13 02:56:54;;;;;;;332.17;73.72;;;9.20;99.90;;;;;;5087227;28;20036;-89
2022/10/13 03:03:07;;;;;;;181.18;59.63;;;9.20;99.90;;;;;;5064928;28;20040;-89
2022/10/13 03:05:34;;;;;;;183.75;61.97;;;9.10;99.90;;;;;;5064817;28;20605;-89
2022/10/13 03:07:59;;;;;;;161.93;57.70;;;9.10;99.90;;;;;;5089896;28;20020;-89
2022/10/13 03:10:25;;;;;;;161.90;57.72;;;9.10;99.90;;;;;;5073152;28;20048;-89
2022/10/13 03:12:54;;;;;;;267.88;70.15;;;9.00;99.90;;;;;;5074357;28;20059;-89
2022/10/13 03:15:35;;;;;;;245.20;66.90;;;9.10;99.90;;;;;;5057166;28;20098;-89
2022/10/13 03:18:05;;;;;;;251.60;64.22;;;9.10;99.90;;;;;;5055774;28;20025;-89
2022/10/13 03:20:30;;;;;;;327.33;79.00;;;9.20;99.90;;;;;;5069848;28;20048;-89
2022/10/13 03:22:56;;;;;;;233.40;67.93;;;9.20;99.90;;;;;;5120111;27;20556;-89
2022/10/13 03:25:22;;;;;;;248.95;67.93;;;9.30;99.90;;;;;;5067026;28;20062;-89
2022/10/13 03:27:51;;;;;;;268.67;68.88;;;9.30;99.90;;;;;;5071550;28;20036;-88
2022/10/13 03:30:17;;;;;;;302.65;68.65;;;9.40;99.90;;;;;;5060383;28;20032;-89
2022/10/13 03:32:42;;;;;;;395.40;76.18;;;9.40;99.90;;;;;;5072445;28;20021;-89
2022/10/13 03:35:08;;;;;;;283.45;69.05;;;9.50;99.90;;;;;;5064186;28;20012;-89
2022/10/13 03:37:34;;;;;;;277.88;69.35;;;9.50;99.90;;;;;;5087882;28;20140;-89
2022/10/13 03:40:00;;;;;;;423.60;79.85;;;9.50;99.90;;;;;;5068698;28;20126;-89
2022/10/13 03:42:26;;;;;;;314.65;70.88;;;9.50;99.90;;;;;;5054404;28;20021;-89
2022/10/13 03:44:51;;;;;;;318.88;72.68;;;9.50;99.90;;;;;;5104342;28;20110;-89
2022/10/13 03:47:17;;;;;;;351.30;73.05;;;9.50;99.90;;;;;;5057296;28;20052;-89
2022/10/13 03:49:43;;;;;;;270.70;69.85;;;9.50;99.90;;;;;;5088965;28;20502;-88
2022/10/13 03:52:08;;;;;;;301.98;69.03;;;9.50;99.90;;;;;;5063538;28;20055;-88
2022/10/13 03:54:34;;;;;;;409.90;75.90;;;9.50;99.90;;;;;;5070303;28;20029;-89
2022/10/13 03:57:01;;;;;;;323.63;67.65;;;9.50;99.90;;;;;;5068224;28;20116;-88
2022/10/13 03:59:28;;;;;;;404.80;70.57;;;9.50;99.90;;;;;;5069932;28;20071;-88
2022/10/13 04:01:54;;;;;;;180.20;56.90;;;9.50;99.90;;;;;;5086352;28;20025;-89
2022/10/13 04:04:20;;;;;;;214.07;59.60;;;9.40;99.90;;;;;;5056279;28;20025;-89
2022/10/13 04:06:47;;;;;;;371.15;66.88;;;9.50;99.90;;;;;;5089787;28;20032;-89
2022/10/13 04:09:13;;;;;;;259.02;58.55;;;9.40;99.90;;;;;;5062205;28;20128;-89
2022/10/13 04:11:38;;;;;;;317.27;59.75;;;9.50;99.90;;;;;;5072607;28;20167;-89
2022/10/13 04:14:04;;;;;;;259.67;61.17;;;9.50;99.90;;;;;;5083577;28;20024;-88
2022/10/13 04:16:30;;;;;;;349.08;67.72;;;9.50;99.90;;;;;;5088598;28;20059;-88
2022/10/13 04:19:00;;;;;;;431.50;65.60;;;9.50;99.90;;;;;;5098938;28;20028;-89
2022/10/13 04:21:27;;;;;;;212.20;52.85;;;9.40;99.90;;;;;;5057853;28;20032;-89
2022/10/13 04:23:56;;;;;;;246.35;52.47;;;9.50;99.90;;;;;;5079098;28;20028;-89
2022/10/13 04:26:24;;;;;;;204.18;52.00;;;9.40;99.90;;;;;;5060721;28;20467;-89
2022/10/13 04:28:51;;;;;;;214.68;48.05;;;9.40;99.90;;;;;;5061851;28;20120;-88
2022/10/13 04:31:17;;;;;;;134.88;40.70;;;9.30;99.90;;;;;;5063906;28;20085;-89
2022/10/13 04:33:44;;;;;;;158.70;42.00;;;9.30;99.90;;;;;;5074278;28;20056;-89
2022/10/13 04:36:12;;;;;;;143.30;42.17;;;9.30;99.90;;;;;;5070343;28;20240;-89
2022/10/13 04:38:38;;;;;;;145.10;38.72;;;9.30;99.90;;;;;;5067181;28;20024;-89
2022/10/13 04:41:05;;;;;;;127.10;38.92;;;9.30;99.90;;;;;;5066059;28;20036;-89
2022/10/13 04:44:01;;;;;;;189.93;42.45;;;9.30;99.90;;;;;;5078663;28;20104;-89
2022/10/13 04:46:27;;;;;;;186.43;41.22;;;9.30;99.90;;;;;;5054678;28;20510;-89
2022/10/13 04:48:55;;;;;;;154.77;38.38;;;9.40;99.90;;;;;;5058495;28;20025;-89
2022/10/13 04:51:24;;;;;;;132.65;37.17;;;9.40;99.90;;;;;;5115034;27;20020;-88
2022/10/13 04:53:57;;;;;;;150.27;38.38;;;9.40;99.90;;;;;;5061622;28;20039;-89
2022/10/13 04:56:24;;;;;;;379.90;48.50;;;9.30;99.90;;;;;;5084896;28;20031;-89
2022/10/13 04:58:50;;;;;;;339.92;48.45;;;9.30;99.90;;;;;;5062633;28;20024;-89
2022/10/13 05:01:21;;;;;;;167.18;37.65;;;9.30;99.90;;;;;;5099429;28;20042;-89
2022/10/13 05:04:05;;;;;;;173.88;41.92;;;9.30;99.90;;;;;;5064761;28;20024;-88
2022/10/13 05:06:36;;;;;;;161.25;40.63;;;9.40;99.90;;;;;;5062266;28;20040;-89
2022/10/13 05:09:02;;;;;;;170.55;41.35;;;9.30;99.90;;;;;;5065292;28;20067;-89
2022/10/13 05:11:29;;;;;;;172.00;40.72;;;9.30;99.90;;;;;;5106824;27;20047;-89
2022/10/13 05:13:56;;;;;;;240.00;45.70;;;9.30;99.90;;;;;;5071781;28;20475;-88
2022/10/13 05:16:23;;;;;;;281.65;48.60;;;9.30;99.90;;;;;;5076932;28;20028;-89
2022/10/13 05:18:50;;;;;;;223.57;45.78;;;9.30;99.90;;;;;;5096860;28;20111;-89
2022/10/13 05:21:18;;;;;;;155.48;40.33;;;9.40;99.90;;;;;;5062441;28;20127;-88
2022/10/13 05:23:45;;;;;;;162.23;36.72;;;9.40;99.90;;;;;;5063307;28;20027;-89
2022/10/13 05:26:16;;;;;;;154.15;37.83;;;9.30;99.90;;;;;;5080219;28;20032;-89
2022/10/13 05:28:42;;;;;;;173.10;39.65;;;9.30;99.90;;;;;;5082310;28;20025;-89
2022/10/13 05:31:11;;;;;;;193.98;40.33;;;9.30;99.90;;;;;;5080827;28;20060;-89
2022/10/13 05:37:25;;;;;;;158.43;38.80;;;9.30;99.90;;;;;;5074115;28;20035;-89
2022/10/13 05:39:51;;;;;;;151.15;37.28;;;9.30;99.90;;;;;;5103836;28;20126;-89
2022/10/13 05:42:16;;;;;;;176.25;37.85;;;9.30;99.90;;;;;;5056173;28;20357;-89
2022/10/13 05:44:42;;;;;;;236.82;42.90;;;9.40;99.90;;;;;;5105701;27;20439;-89
2022/10/13 05:47:08;;;;;;;238.48;40.70;;;9.40;99.90;;;;;;5054079;28;20020;-89
2022/10/13 05:49:35;;;;;;;300.85;49.25;;;9.40;99.90;;;;;;5088227;28;20340;-89
2022/10/13 05:52:05;;;;;;;180.23;46.40;;;9.40;99.90;;;;;;5067996;28;20040;-89
2022/10/13 05:54:47;;;;;;;169.32;42.92;;;9.40;99.90;;;;;;5088765;28;20166;-89
2022/10/13 05:57:22;;;;;;;202.75;43.55;;;9.30;99.90;;;;;;5059649;28;20032;-89
2022/10/13 05:59:52;;;;;;;242.02;45.03;;;9.40;99.90;;;;;;5093513;28;20044;-90
2022/10/13 06:02:20;;;;;;;222.07;44.30;;;9.40;99.90;;;;;;5067919;28;20482;-89
2022/10/13 06:04:49;;;;;;;182.60;42.50;;;9.40;99.90;;;;;;5094002;28;20471;-89
2022/10/13 06:07:16;;;;;;;159.93;38.45;;;9.40;99.90;;;;;;5077004;28;20021;-89
2022/10/13 06:09:42;;;;;;;243.10;47.45;;;9.50;99.90;;;;;;5085936;28;20075;-89
2022/10/13 06:12:09;;;;;;;278.48;48.50;;;9.50;99.90;;;;;;5061975;28;20505;-89
2022/10/13 06:14:35;;;;;;;281.40;46.53;;;9.50;99.90;;;;;;5058675;28;20361;-89
2022/10/13 06:17:04;;;;;;;239.07;42.28;;;9.60;99.90;;;;;;5056620;28;20119;-89
2022/10/13 06:19:30;;;;;;;271.42;48.88;;;9.60;99.90;;;;;;5058602;28;20458;-89
2022/10/13 06:22:04;;;;;;;319.63;51.13;;;9.70;99.90;;;;;;5054950;28;20031;-90
2022/10/13 06:24:30;;;;;;;254.63;46.50;;;9.60;99.90;;;;;;5058552;28;20028;-89
2022/10/13 06:26:56;;;;;;;373.25;48.83;;;9.60;99.90;;;;;;5121100;27;20038;-90
2022/10/13 06:29:22;;;;;;;269.13;39.20;;;9.70;99.90;;;;;;5059091;28;20374;-89
2022/10/13 06:31:48;;;;;;;247.48;40.97;;;9.70;99.90;;;;;;5080497;28;20033;-89
2022/10/13 06:34:14;;;;;;;257.52;40.00;;;9.80;99.90;;;;;;5058669;28;20067;-89
2022/10/13 06:36:43;;;;;;;269.85;40.65;;;9.90;99.90;;;;;;5076170;28;20534;-89
2022/10/13 06:39:11;;;;;;;257.67;42.05;;;10.00;99.90;;;;;;5058676;28;20475;-90
2022/10/13 06:41:37;;;;;;;359.63;55.70;;;10.10;99.90;;;;;;5066755;28;20067;-90
2022/10/13 06:44:03;;;;;;;381.75;55.35;;;10.20;99.90;;;;;;5066203;28;20020;-89
2022/10/13 06:46:29;;;;;;;335.92;47.75;;;10.20;99.90;;;;;;5058364;28;20502;-89
2022/10/13 06:48:54;;;;;;;543.08;55.80;;;10.30;99.90;;;;;;5099817;28;20024;-89
2022/10/13 06:51:20;;;;;;;596.70;57.30;;;10.20;99.90;;;;;;5065303;28;20035;-89
2022/10/13 06:53:46;;;;;;;231.73;41.67;;;10.20;99.90;;;;;;5081066;28;20090;-89
2022/10/13 06:56:13;;;;;;;329.55;50.33;;;10.30;99.90;;;;;;5073869;28;20032;-89
2022/10/13 06:58:38;;;;;;;330.85;53.80;;;10.40;99.90;;;;;;5056956;28;20043;-89
2022/10/13 07:01:05;;;;;;;473.65;64.75;;;10.40;99.90;;;;;;5070841;28;20037;-89
2022/10/13 07:03:32;;;;;;;406.17;57.85;;;10.40;99.90;;;;;;5053229;28;20021;-89
2022/10/13 07:06:04;;;;;;;368.77;52.92;;;10.40;99.90;;;;;;5051525;28;20029;-89
2022/10/13 07:08:31;;;;;;;407.55;58.97;;;10.40;99.90;;;;;;5068165;28;20029;-88
2022/10/13 07:10:57;;;;;;;339.35;54.83;;;10.40;99.90;;;;;;5061374;28;20077;-89
2022/10/13 07:13:23;;;;;;;393.73;55.40;;;10.40;99.90;;;;;;5054785;28;20652;-89
2022/10/13 07:15:49;;;;;;;272.42;54.03;;;10.50;99.90;;;;;;5059595;28;20067;-90
2022/10/13 07:18:15;;;;;;;308.98;65.63;;;10.50;99.90;;;;;;5075357;28;20024;-88
2022/10/13 07:20:40;;;;;;;312.73;71.30;;;10.60;99.90;;;;;;5091422;28;20090;-89
2022/10/13 07:23:06;;;;;;;351.27;76.10;;;10.80;99.90;;;;;;5076506;28;20642;-90
2022/10/13 07:25:31;;;;;;;268.58;72.85;;;11.00;99.90;;;;;;5059925;28;20853;-89
2022/10/13 07:27:58;;;;;;;284.70;78.93;;;10.90;99.90;;;;;;5061281;28;20043;-89
2022/10/13 07:30:25;;;;;;;309.75;81.80;;;10.90;99.90;;;;;;5065796;28;20032;-89
2022/10/13 07:32:50;;;;;;;363.38;86.15;;;10.90;99.90;;;;;;5110581;27;20033;-89
2022/10/13 07:35:16;;;;;;;298.10;79.55;;;11.00;99.90;;;;;;5068820;28;20027;-89
2022/10/13 07:41:30;;;;;;;229.80;67.55;;;11.30;99.90;;;;;;5064913;28;20046;-90
2022/10/13 07:43:56;;;;;;;191.07;63.55;;;11.70;99.90;;;;;;5050955;28;20028;-89
2022/10/13 07:46:22;;;;;;;158.57;56.97;;;12.10;99.90;;;;;;5097612;28;20386;-90
2022/10/13 07:48:48;;;;;;;123.07;49.00;;;12.50;99.90;;;;;;5061004;28;20024;-89
2022/10/13 07:51:14;;;;;;;103.75;42.00;;;12.80;99.90;;;;;;5063419;28;20056;-89
2022/10/13 07:53:41;;;;;;;81.47;37.40;;;13.30;99.90;;;;;;5063018;28;20476;-90
2022/10/13 07:56:09;;;;;;;85.28;35.55;;;13.20;99.90;;;;;;5071183;28;20115;-90
2022/10/13 07:58:41;;;;;;;75.28;33.65;;;13.30;99.90;;;;;;5086595;28;20376;-90
2022/10/13 08:01:08;;;;;;;91.70;36.83;;;13.40;99.90;;;;;;5061203;28;20024;-89
2022/10/13 08:03:37;;;;;;;76.88;34.75;;;13.30;99.90;;;;;;5065326;28;20357;-90
2022/10/13 08:06:04;;;;;;;69.43;28.83;;;13.40;99.90;;;;;;5061939;28;20092;-90
2022/10/13 08:08:31;;;;;;;58.10;26.60;;;13.30;99.90;;;;;;5058194;28;20028;-90
2022/10/13 08:11:05;;;;;;;60.47;26.10;;;12.80;99.90;;;;;;5066953;28;20028;-89
2022/10/13 08:13:34;;;;;;;63.88;28.00;;;12.30;99.90;;;;;;5071996;28;20111;-90
2022/10/13 08:16:09;;;;;;;68.00;29.27;;;12.20;99.90;;;;;;5068619;28;20107;-90
2022/10/13 08:18:35;;;;;;;71.70;31.38;;;12.20;99.90;;;;;;5075033;28;20075;-89
2022/10/13 08:21:01;;;;;;;64.88;28.67;;;12.10;99.90;;;;;;5059391;28;20052;-89
2022/10/13 08:23:28;;;;;;;64.90;29.67;;;12.10;99.90;;;;;;5060422;28;20031;-89
2022/10/13 08:26:00;;;;;;;60.05;29.52;;;12.10;99.90;;;;;;5076724;28;20028;-89
2022/10/13 08:32:13;;;;;;;58.13;28.02;;;12.30;99.90;;;;;;5061673;28;20430;-89
2022/10/13 08:34:38;;;;;;;55.60;27.40;;;12.60;99.90;;;;;;5092104;28;20020;-89
2022/10/13 08:37:04;;;;;;;50.00;26.70;;;12.70;99.90;;;;;;5055252;28;20033;-90
2022/10/13 08:39:30;;;;;;;52.90;28.58;;;12.50;99.90;;;;;;5111658;28;20028;-90
2022/10/13 08:41:57;;;;;;;58.88;27.83;;;12.50;99.90;;;;;;5057214;28;20032;-89
2022/10/13 08:44:39;;;;;;;59.25;28.90;;;12.40;99.90;;;;;;5097912;28;20031;-89
2022/10/13 08:50:56;;;;;;;71.75;29.08;;;12.40;99.90;;;;;;5062002;28;20050;-90
2022/10/13 08:53:28;;;;;;;145.88;32.92;;;12.20;99.90;;;;;;5062135;28;20402;-90
2022/10/13 08:56:18;;;;;;;77.65;31.95;;;12.20;99.90;;;;;;5055804;28;20118;-90
2022/10/13 08:58:47;;;;;;;61.13;30.67;;;11.90;99.90;;;;;;5077381;28;20047;-90
2022/10/13 09:01:24;;;;;;;56.88;30.63;;;11.90;99.90;;;;;;5088516;28;20040;-90
2022/10/13 09:03:59;;;;;;;54.00;29.40;;;12.10;99.90;;;;;;5051528;28;20637;-90
2022/10/13 09:06:30;;;;;;;57.28;30.08;;;12.30;99.90;;;;;;5058133;28;20025;-90
2022/10/13 09:09:03;;;;;;;50.08;27.48;;;12.70;99.90;;;;;;5078275;28;20048;-89
2022/10/13 09:11:34;;;;;;;52.40;26.17;;;12.80;99.90;;;;;;5055641;28;20028;-88
2022/10/13 09:14:03;;;;;;;47.28;25.85;;;13.20;99.90;;;;;;5071748;28;20051;-89
2022/10/13 09:16:41;;;;;;;45.97;25.75;;;13.30;99.90;;;;;;5062570;28;20039;-89
2022/10/13 09:19:37;;;;;;;48.50;26.33;;;13.50;99.90;;;;;;5072008;28;20479;-89
2022/10/13 09:22:25;;;;;;;48.47;25.10;;;13.60;99.90;;;;;;5062448;28;20031;-89
2022/10/13 09:25:21;;;;;;;45.80;25.75;;;13.40;99.90;;;;;;5049032;28;20031;-89
2022/10/13 09:27:50;;;;;;;48.83;29.00;;;13.50;99.90;;;;;;5067173;28;20047;-89
2022/10/13 09:30:25;;;;;;;50.92;29.45;;;13.50;99.90;;;;;;5049465;28;20021;-90
2022/10/13 09:33:18;;;;;;;42.95;25.70;;;13.60;99.90;;;;;;5044618;28;20033;-89
2022/10/13 09:35:46;;;;;;;56.35;25.70;;;13.50;99.90;;;;;;5066783;28;20136;-89
2022/10/13 09:38:18;;;;;;;45.13;25.88;;;13.40;99.90;;;;;;5073693;28;20031;-89
2022/10/13 09:41:02;;;;;;;44.40;23.38;;;13.30;99.90;;;;;;5058915;28;20025;-89
2022/10/13 09:43:46;;;;;;;46.97;25.75;;;13.40;99.90;;;;;;5088110;28;20511;-89
2022/10/13 09:46:34;;;;;;;41.58;22.88;;;13.40;99.90;;;;;;5054783;28;20667;-88
2022/10/13 09:49:20;;;;;;;50.80;24.20;;;13.30;99.90;;;;;;5071696;28;20420;-89
2022/10/13 09:51:47;;;;;;;47.22;24.10;;;13.30;99.90;;;;;;5052960;28;20789;-88
2022/10/13 09:54:33;;;;;;;42.90;23.58;;;13.20;99.90;;;;;;5079286;28;20025;-89
2022/10/13 09:57:02;;;;;;;;;;;13.30;99.90;;;;;;5069468;28;20552;-88
2022/10/13 09:59:42;;;;;;;48.97;24.75;;;13.40;99.90;;;;;;5079282;28;19905;-89
2022/10/13 10:02:39;;;;;;;38.45;22.27;;;13.40;99.90;;;;;;5071447;28;20028;-88
2022/10/13 10:05:17;;;;;;;36.28;20.13;;;13.60;99.90;;;;;;5050236;28;20029;-89
2022/10/13 10:07:47;;;;;;;;;;;13.70;99.90;;;;;;5053828;28;20032;-88
2022/10/13 10:10:32;;;;;;;38.70;20.45;;;13.80;99.90;;;;;;5064566;28;19905;-89
2022/10/13 10:13:01;;;;;;;38.55;20.75;;;13.90;99.90;;;;;;5057927;28;20016;-89
2022/10/13 10:15:50;;;;;;;59.65;24.00;;;13.80;99.90;;;;;;5056208;28;20029;-89
2022/10/13 10:18:39;;;;;;;47.47;21.88;;;13.70;99.90;;;;;;5070113;28;20047;-88
2022/10/13 10:21:10;;;;;;;49.90;21.93;;;13.80;99.90;;;;;;5045342;28;20045;-89
2022/10/13 10:23:42;;;;;;;46.22;21.30;;;14.00;99.90;;;;;;5049738;28;20025;-88
2022/10/13 10:26:16;;;;;;;43.65;22.23;;;14.20;99.90;;;;;;5044074;28;20029;-88
2022/10/13 10:29:06;;;;;;;50.85;22.80;;;14.20;99.90;;;;;;5041200;28;20487;-88
2022/10/13 10:31:47;;;;;;;39.40;22.27;;;14.00;99.90;;;;;;5065487;28;20032;-88
2022/10/13 10:34:35;;;;;;;45.67;21.70;;;14.10;99.90;;;;;;5056528;28;20371;-88
2022/10/13 10:37:27;;;;;;;46.85;22.33;;;14.20;99.90;;;;;;5058317;28;20028;-88
2022/10/13 10:40:15;;;;;;;51.63;23.02;;;14.10;99.90;;;;;;5059432;28;20028;-88
2022/10/13 10:43:05;;;;;;;46.13;24.05;;;14.20;99.90;;;;;;5102859;28;20024;-88
2022/10/13 10:45:34;;;;;;;44.63;24.02;;;14.10;99.90;;;;;;5055753;28;20041;-89
2022/10/13 10:48:15;;;;;;;50.88;26.50;;;14.00;99.90;;;;;;5051884;28;20417;-88
2022/10/13 10:50:41;;;;;;;60.08;27.55;;;13.70;99.90;;;;;;5075314;28;20028;-89
2022/10/13 10:53:19;;;;;;;64.10;28.23;;;13.40;99.90;;;;;;5078096;28;20477;-89
2022/10/13 10:55:52;;;;;;;50.60;27.67;;;13.20;99.90;;;;;;5061421;28;20115;-88
2022/10/13 10:59:01;;;;;;;53.60;28.75;;;13.00;99.90;;;;;;5062200;28;20028;-88
2022/10/13 11:02:02;;;;;;;56.35;28.73;;;12.90;99.90;;;;;;5037679;28;20430;-89
2022/10/13 11:04:43;;;;;;;53.93;27.93;;;12.90;99.90;;;;;;5032132;28;20037;-89
2022/10/13 11:07:21;;;;;;;;;;;12.80;99.90;;;;;;5074678;28;20756;-89
2022/10/13 11:09:47;;;;;;;56.72;28.02;;;12.80;99.90;;;;;;5075049;28;19908;-88
2022/10/13 11:12:19;;;;;;;57.72;27.35;;;12.70;99.90;;;;;;5066477;28;20115;-88
2022/10/13 11:14:53;;;;;;;59.72;29.67;;;12.60;99.90;;;;;;5080567;28;20039;-89
2022/10/13 11:17:27;;;;;;;62.78;29.83;;;12.60;99.90;;;;;;5065739;28;20077;-89
2022/10/13 11:19:54;;;;;;;64.18;30.27;;;12.50;99.90;;;;;;5056920;28;20059;-88
2022/10/13 11:22:29;;;;;;;67.68;34.00;;;12.50;99.90;;;;;;5112914;27;20035;-90
2022/10/13 11:25:01;;;;;;;80.75;33.10;;;12.40;99.90;;;;;;5075702;28;20551;-89
2022/10/13 11:27:38;;;;;;;72.05;32.22;;;12.40;99.90;;;;;;5099978;28;20028;-89
2022/10/13 11:34:02;;;;;;;66.40;34.08;;;12.30;99.90;;;;;;5071529;28;20093;-89
2022/10/13 11:37:00;;;;;;;64.38;31.83;;;12.50;99.90;;;;;;5062539;28;20016;-88
2022/10/13 11:39:26;;;;;;;71.90;35.25;;;12.50;99.90;;;;;;5080138;28;20077;-89
2022/10/13 11:42:09;;;;;;;71.63;35.67;;;12.60;99.90;;;;;;5076626;28;20357;-89
2022/10/13 11:44:59;;;;;;;68.30;33.15;;;12.60;99.90;;;;;;5101428;28;20150;-88
2022/10/13 11:51:33;;;;;;;66.82;30.98;;;13.40;99.90;;;;;;5067510;28;20077;-88
2022/10/13 11:54:23;;;;;;;50.33;27.30;;;13.90;99.90;;;;;;5061364;28;20029;-88
2022/10/13 11:56:52;;;;;;;60.05;27.10;;;14.30;99.90;;;;;;5118680;27;20482;-88
2022/10/13 11:59:33;;;;;;;45.65;25.48;;;14.60;99.90;;;;;;5071415;28;20060;-89
2022/10/13 12:02:11;;;;;;;49.65;26.23;;;14.70;99.90;;;;;;5073058;28;20024;-88
2022/10/13 12:04:39;;;;;;;41.95;22.80;;;14.50;99.90;;;;;;5055751;28;20499;-89
2022/10/13 12:07:10;;;;;;;51.53;25.33;;;14.50;99.90;;;;;;5059180;28;20024;-89
2022/10/13 12:09:51;;;;;;;48.63;24.65;;;14.50;99.90;;;;;;5057079;28;20032;-89
2022/10/13 12:12:21;;;;;;;51.30;25.45;;;14.60;99.90;;;;;;5059518;28;20120;-89
2022/10/13 12:14:51;;;;;;;42.70;24.45;;;14.60;99.90;;;;;;5057971;28;20047;-89
2022/10/13 12:17:25;;;;;;;65.50;26.45;;;14.60;99.90;;;;;;5064215;28;20024;-89
2022/10/13 12:19:53;;;;;;;44.55;24.08;;;14.60;99.90;;;;;;5056680;28;20071;-89
2022/10/13 12:22:19;;;;;;;51.67;23.02;;;14.30;99.90;;;;;;5111505;28;20463;-89
2022/10/13 12:24:58;;;;;;;50.00;25.17;;;14.10;99.90;;;;;;5076427;28;20450;-89
2022/10/13 12:27:23;;;;;;;50.08;25.45;;;14.10;99.90;;;;;;5082296;28;20016;-89
2022/10/13 12:29:49;;;;;;;58.65;23.70;;;14.10;99.90;;;;;;5077196;28;20497;-88
2022/10/13 12:32:25;;;;;;;43.25;22.45;;;14.50;99.90;;;;;;5054125;28;20029;-89
2022/10/13 12:34:51;;;;;;;44.42;23.40;;;14.90;99.90;;;;;;5072047;28;20123;-89
2022/10/13 12:37:32;;;;;;;41.80;20.65;;;15.30;99.90;;;;;;5052460;28;20120;-88
2022/10/13 12:40:00;;;;;;;41.47;21.23;;;15.80;99.90;;;;;;5071311;28;20032;-89
2022/10/13 12:42:33;;;;;;;37.50;21.35;;;16.20;99.90;;;;;;5075193;28;20037;-89
2022/10/13 12:45:00;;;;;;;41.38;20.45;;;16.60;99.90;;;;;;5072129;28;20027;-89
2022/10/13 12:47:46;;;;;;;40.42;21.02;;;17.00;99.90;;;;;;5054677;28;20025;-88
2022/10/13 12:50:24;;;;;;;43.10;22.20;;;16.80;99.90;;;;;;5070672;28;20024;-89
2022/10/13 12:52:52;;;;;;;46.30;22.58;;;16.60;99.90;;;;;;5063473;28;20029;-89
2022/10/13 12:55:20;;;;;;;40.28;23.13;;;16.50;99.90;;;;;;5079139;28;20091;-89
2022/10/13 12:57:48;;;;;;;50.75;23.67;;;16.50;99.90;;;;;;5079978;28;20040;-89
2022/10/13 13:00:19;;;;;;;37.90;22.13;;;16.50;99.90;;;;;;5062988;28;20031;-90
2022/10/13 13:02:58;;;;;;;39.97;20.97;;;16.40;99.90;;;;;;5081168;28;20029;-89
2022/10/13 13:05:39;;;;;;;43.80;21.65;;;16.40;99.90;;;;;;5063943;28;20034;-88
2022/10/13 13:08:28;;;;;;;41.37;21.80;;;16.10;99.90;;;;;;5075986;28;20055;-89
2022/10/13 13:10:59;;;;;;;43.03;22.23;;;16.00;99.90;;;;;;5059050;28;20034;-88
2022/10/13 13:13:25;;;;;;;;;;;15.70;99.90;;;;;;5083391;28;20055;-87
2022/10/13 13:15:52;;;;;;;47.40;23.23;;;15.70;99.90;;;;;;5065554;28;19916;-87
2022/10/13 13:18:38;;;;;;;41.05;23.02;;;15.50;99.90;;;;;;5063325;28;20574;-87
2022/10/13 13:21:05;;;;;;;46.45;25.23;;;15.30;99.90;;;;;;5047932;28;20032;-87